sensor_id;sensor_type;location;lat;lon;timestamp;P1;durP1;ratioP1;P2;durP2;ratioP2
54831;SDS011;40730;53.068;6.572;2022-07-23T00:02:00;6.30;;;3.47;;
54831;SDS011;40730;53.068;6.572;2022-07-23T00:04:25;5.15;;;4.40;;
54831;SDS011;40730;53.068;6.572;2022-07-23T00:06:51;11.13;;;4.10;;
54831;SDS011;40730;53.068;6.572;2022-07-23T00:09:17;9.63;;;4.05;;
54831;SDS011;40730;53.068;6.572;2022-07-23T00:11:42;4.80;;;4.10;;
54831;SDS011;40730;53.068;6.572;2022-07-23T00:14:08;6.93;;;4.75;;
54831;SDS011;40730;53.068;6.572;2022-07-23T00:16:33;8.23;;;4.30;;
54831;SDS011;40730;53.068;6.572;2022-07-23T00:18:59;4.43;;;4.03;;
54831;SDS011;40730;53.068;6.572;2022-07-23T00:21:26;5.65;;;4.30;;
54831;SDS011;40730;53.068;6.572;2022-07-23T00:23:52;4.93;;;3.58;;
54831;SDS011;40730;53.068;6.572;2022-07-23T00:26:17;6.15;;;3.80;;
54831;SDS011;40730;53.068;6.572;2022-07-23T00:28:43;6.95;;;3.60;;
54831;SDS011;40730;53.068;6.572;2022-07-23T00:31:08;7.57;;;4.40;;
54831;SDS011;40730;53.068;6.572;2022-07-23T00:33:34;7.28;;;3.60;;
54831;SDS011;40730;53.068;6.572;2022-07-23T00:36:00;8.23;;;4.63;;
54831;SDS011;40730;53.068;6.572;2022-07-23T00:38:25;4.15;;;3.33;;
54831;SDS011;40730;53.068;6.572;2022-07-23T00:40:51;8.57;;;4.60;;
54831;SDS011;40730;53.068;6.572;2022-07-23T00:43:16;4.40;;;3.10;;
54831;SDS011;40730;53.068;6.572;2022-07-23T00:45:44;4.55;;;2.90;;
54831;SDS011;40730;53.068;6.572;2022-07-23T00:48:10;3.67;;;1.38;;
54831;SDS011;40730;53.068;6.572;2022-07-23T00:50:35;4.07;;;0.88;;
54831;SDS011;40730;53.068;6.572;2022-07-23T00:53:01;2.92;;;1.20;;
54831;SDS011;40730;53.068;6.572;2022-07-23T00:55:26;2.45;;;1.30;;
54831;SDS011;40730;53.068;6.572;2022-07-23T00:57:52;2.72;;;1.65;;
54831;SDS011;40730;53.068;6.572;2022-07-23T01:00:20;1.70;;;1.40;;
54831;SDS011;40730;53.068;6.572;2022-07-23T01:02:46;4.85;;;1.23;;
54831;SDS011;40730;53.068;6.572;2022-07-23T01:05:12;2.28;;;1.08;;
54831;SDS011;40730;53.068;6.572;2022-07-23T01:07:38;3.67;;;1.70;;
54831;SDS011;40730;53.068;6.572;2022-07-23T01:10:04;1.83;;;1.58;;
54831;SDS011;40730;53.068;6.572;2022-07-23T01:12:50;1.88;;;1.70;;
54831;SDS011;40730;53.068;6.572;2022-07-23T01:15:16;5.80;;;3.75;;
54831;SDS011;40730;53.068;6.572;2022-07-23T01:17:41;6.80;;;2.45;;
54831;SDS011;40730;53.068;6.572;2022-07-23T01:20:07;6.22;;;2.97;;
54831;SDS011;40730;53.068;6.572;2022-07-23T01:22:33;5.53;;;4.00;;
54831;SDS011;40730;53.068;6.572;2022-07-23T01:24:59;4.95;;;3.70;;
54831;SDS011;40730;53.068;6.572;2022-07-23T01:27:24;5.53;;;4.72;;
54831;SDS011;40730;53.068;6.572;2022-07-23T01:29:50;7.70;;;5.05;;
54831;SDS011;40730;53.068;6.572;2022-07-23T01:32:15;8.25;;;5.03;;
54831;SDS011;40730;53.068;6.572;2022-07-23T01:34:41;1.95;;;1.55;;
54831;SDS011;40730;53.068;6.572;2022-07-23T01:37:06;5.35;;;2.67;;
54831;SDS011;40730;53.068;6.572;2022-07-23T01:39:32;3.80;;;1.52;;
54831;SDS011;40730;53.068;6.572;2022-07-23T01:41:57;4.03;;;1.77;;
54831;SDS011;40730;53.068;6.572;2022-07-23T01:44:23;4.47;;;3.25;;
54831;SDS011;40730;53.068;6.572;2022-07-23T01:46:48;4.22;;;2.90;;
54831;SDS011;40730;53.068;6.572;2022-07-23T01:49:14;3.53;;;1.98;;
54831;SDS011;40730;53.068;6.572;2022-07-23T01:51:40;3.95;;;2.40;;
54831;SDS011;40730;53.068;6.572;2022-07-23T01:54:24;8.70;;;3.40;;
54831;SDS011;40730;53.068;6.572;2022-07-23T01:56:57;3.10;;;2.17;;
54831;SDS011;40730;53.068;6.572;2022-07-23T01:59:23;2.17;;;1.83;;
54831;SDS011;40730;53.068;6.572;2022-07-23T02:01:49;3.20;;;1.98;;
54831;SDS011;40730;53.068;6.572;2022-07-23T02:04:16;2.85;;;2.38;;
54831;SDS011;40730;53.068;6.572;2022-07-23T02:06:42;6.05;;;2.70;;
54831;SDS011;40730;53.068;6.572;2022-07-23T02:09:08;7.10;;;3.75;;
54831;SDS011;40730;53.068;6.572;2022-07-23T02:11:33;8.38;;;4.85;;
54831;SDS011;40730;53.068;6.572;2022-07-23T02:13:59;7.03;;;4.60;;
54831;SDS011;40730;53.068;6.572;2022-07-23T02:16:24;5.57;;;3.78;;
54831;SDS011;40730;53.068;6.572;2022-07-23T02:18:50;6.55;;;4.32;;
54831;SDS011;40730;53.068;6.572;2022-07-23T02:21:16;5.63;;;3.55;;
54831;SDS011;40730;53.068;6.572;2022-07-23T02:23:41;7.60;;;3.47;;
54831;SDS011;40730;53.068;6.572;2022-07-23T02:26:07;5.20;;;2.42;;
54831;SDS011;40730;53.068;6.572;2022-07-23T02:28:32;4.00;;;1.98;;
54831;SDS011;40730;53.068;6.572;2022-07-23T02:30:58;3.45;;;2.42;;
54831;SDS011;40730;53.068;6.572;2022-07-23T02:33:23;6.25;;;2.95;;
54831;SDS011;40730;53.068;6.572;2022-07-23T02:35:49;4.55;;;3.10;;
54831;SDS011;40730;53.068;6.572;2022-07-23T02:38:14;6.35;;;3.80;;
54831;SDS011;40730;53.068;6.572;2022-07-23T02:40:41;6.30;;;4.30;;
54831;SDS011;40730;53.068;6.572;2022-07-23T02:43:06;6.97;;;4.75;;
54831;SDS011;40730;53.068;6.572;2022-07-23T02:45:32;9.23;;;4.65;;
54831;SDS011;40730;53.068;6.572;2022-07-23T02:47:58;8.48;;;5.10;;
54831;SDS011;40730;53.068;6.572;2022-07-23T02:50:23;6.78;;;3.65;;
54831;SDS011;40730;53.068;6.572;2022-07-23T02:52:49;9.10;;;4.28;;
54831;SDS011;40730;53.068;6.572;2022-07-23T02:55:14;7.93;;;3.30;;
54831;SDS011;40730;53.068;6.572;2022-07-23T02:57:40;221.68;;;8.45;;
54831;SDS011;40730;53.068;6.572;2022-07-23T03:00:06;67.15;;;6.15;;
54831;SDS011;40730;53.068;6.572;2022-07-23T03:02:32;8.38;;;3.92;;
54831;SDS011;40730;53.068;6.572;2022-07-23T03:04:58;5.63;;;3.58;;
54831;SDS011;40730;53.068;6.572;2022-07-23T03:07:24;6.38;;;3.40;;
54831;SDS011;40730;53.068;6.572;2022-07-23T03:09:49;7.57;;;3.97;;
54831;SDS011;40730;53.068;6.572;2022-07-23T03:12:15;7.97;;;4.07;;
54831;SDS011;40730;53.068;6.572;2022-07-23T03:14:40;11.68;;;6.38;;
54831;SDS011;40730;53.068;6.572;2022-07-23T03:17:06;12.18;;;6.45;;
54831;SDS011;40730;53.068;6.572;2022-07-23T03:19:32;8.45;;;5.68;;
54831;SDS011;40730;53.068;6.572;2022-07-23T03:21:58;12.02;;;5.47;;
54831;SDS011;40730;53.068;6.572;2022-07-23T03:24:24;3.67;;;3.00;;
54831;SDS011;40730;53.068;6.572;2022-07-23T03:27:09;8.10;;;3.35;;
54831;SDS011;40730;53.068;6.572;2022-07-23T03:29:35;4.70;;;2.47;;
54831;SDS011;40730;53.068;6.572;2022-07-23T03:32:02;5.60;;;3.63;;
54831;SDS011;40730;53.068;6.572;2022-07-23T03:34:28;8.70;;;4.20;;
54831;SDS011;40730;53.068;6.572;2022-07-23T03:36:53;8.30;;;4.57;;
54831;SDS011;40730;53.068;6.572;2022-07-23T03:39:19;7.85;;;4.53;;
54831;SDS011;40730;53.068;6.572;2022-07-23T03:41:45;11.48;;;4.13;;
54831;SDS011;40730;53.068;6.572;2022-07-23T03:44:10;4.05;;;2.67;;
54831;SDS011;40730;53.068;6.572;2022-07-23T03:46:36;5.70;;;3.63;;
54831;SDS011;40730;53.068;6.572;2022-07-23T03:49:01;7.25;;;3.25;;
54831;SDS011;40730;53.068;6.572;2022-07-23T03:51:27;7.43;;;3.88;;
54831;SDS011;40730;53.068;6.572;2022-07-23T03:53:52;5.20;;;2.08;;
54831;SDS011;40730;53.068;6.572;2022-07-23T03:56:19;32.22;;;3.35;;
54831;SDS011;40730;53.068;6.572;2022-07-23T03:58:45;2.20;;;1.85;;
54831;SDS011;40730;53.068;6.572;2022-07-23T04:01:10;5.82;;;2.13;;
54831;SDS011;40730;53.068;6.572;2022-07-23T04:03:36;3.58;;;2.22;;
54831;SDS011;40730;53.068;6.572;2022-07-23T04:06:02;5.95;;;3.17;;
54831;SDS011;40730;53.068;6.572;2022-07-23T04:08:28;5.50;;;3.53;;
54831;SDS011;40730;53.068;6.572;2022-07-23T04:10:54;3.95;;;2.78;;
54831;SDS011;40730;53.068;6.572;2022-07-23T04:13:19;6.05;;;3.83;;
54831;SDS011;40730;53.068;6.572;2022-07-23T04:15:45;5.40;;;3.42;;
54831;SDS011;40730;53.068;6.572;2022-07-23T04:18:11;4.50;;;1.90;;
54831;SDS011;40730;53.068;6.572;2022-07-23T04:20:36;6.22;;;2.13;;
54831;SDS011;40730;53.068;6.572;2022-07-23T04:23:02;4.10;;;2.17;;
54831;SDS011;40730;53.068;6.572;2022-07-23T04:25:27;2.72;;;1.52;;
54831;SDS011;40730;53.068;6.572;2022-07-23T04:27:53;5.57;;;2.83;;
54831;SDS011;40730;53.068;6.572;2022-07-23T04:30:18;3.53;;;2.10;;
54831;SDS011;40730;53.068;6.572;2022-07-23T04:32:44;3.88;;;2.17;;
54831;SDS011;40730;53.068;6.572;2022-07-23T04:35:10;2.92;;;2.47;;
54831;SDS011;40730;53.068;6.572;2022-07-23T04:37:35;7.32;;;3.58;;
54831;SDS011;40730;53.068;6.572;2022-07-23T04:40:01;9.25;;;4.57;;
54831;SDS011;40730;53.068;6.572;2022-07-23T04:42:27;13.60;;;6.13;;
54831;SDS011;40730;53.068;6.572;2022-07-23T04:44:52;11.70;;;6.82;;
54831;SDS011;40730;53.068;6.572;2022-07-23T04:47:18;20.00;;;8.75;;
54831;SDS011;40730;53.068;6.572;2022-07-23T04:49:44;17.90;;;8.45;;
54831;SDS011;40730;53.068;6.572;2022-07-23T04:52:09;18.65;;;8.75;;
54831;SDS011;40730;53.068;6.572;2022-07-23T04:54:35;19.08;;;8.07;;
54831;SDS011;40730;53.068;6.572;2022-07-23T04:57:00;15.93;;;7.22;;
54831;SDS011;40730;53.068;6.572;2022-07-23T04:59:26;18.27;;;8.98;;
54831;SDS011;40730;53.068;6.572;2022-07-23T05:01:51;14.13;;;7.88;;
54831;SDS011;40730;53.068;6.572;2022-07-23T05:04:17;11.45;;;7.07;;
54831;SDS011;40730;53.068;6.572;2022-07-23T05:06:43;17.55;;;9.35;;
54831;SDS011;40730;53.068;6.572;2022-07-23T05:09:08;16.58;;;8.57;;
54831;SDS011;40730;53.068;6.572;2022-07-23T05:11:34;15.40;;;9.23;;
54831;SDS011;40730;53.068;6.572;2022-07-23T05:13:59;18.80;;;8.93;;
54831;SDS011;40730;53.068;6.572;2022-07-23T05:16:25;14.57;;;8.57;;
54831;SDS011;40730;53.068;6.572;2022-07-23T05:18:50;18.85;;;8.05;;
54831;SDS011;40730;53.068;6.572;2022-07-23T05:21:16;14.70;;;8.07;;
54831;SDS011;40730;53.068;6.572;2022-07-23T05:23:42;15.30;;;7.15;;
54831;SDS011;40730;53.068;6.572;2022-07-23T05:26:07;13.32;;;7.70;;
54831;SDS011;40730;53.068;6.572;2022-07-23T05:28:33;14.38;;;7.57;;
54831;SDS011;40730;53.068;6.572;2022-07-23T05:30:59;13.88;;;7.30;;
54831;SDS011;40730;53.068;6.572;2022-07-23T05:33:24;14.82;;;7.20;;
54831;SDS011;40730;53.068;6.572;2022-07-23T05:35:50;12.10;;;7.53;;
54831;SDS011;40730;53.068;6.572;2022-07-23T05:38:15;12.73;;;7.60;;
54831;SDS011;40730;53.068;6.572;2022-07-23T05:40:41;14.60;;;7.38;;
54831;SDS011;40730;53.068;6.572;2022-07-23T05:43:07;11.98;;;7.50;;
54831;SDS011;40730;53.068;6.572;2022-07-23T05:45:32;12.38;;;6.97;;
54831;SDS011;40730;53.068;6.572;2022-07-23T05:47:58;11.48;;;7.85;;
54831;SDS011;40730;53.068;6.572;2022-07-23T05:50:23;16.15;;;8.43;;
54831;SDS011;40730;53.068;6.572;2022-07-23T05:52:49;13.68;;;7.47;;
54831;SDS011;40730;53.068;6.572;2022-07-23T05:55:15;11.98;;;7.85;;
54831;SDS011;40730;53.068;6.572;2022-07-23T05:57:40;11.88;;;6.47;;
54831;SDS011;40730;53.068;6.572;2022-07-23T06:00:07;9.65;;;6.50;;
54831;SDS011;40730;53.068;6.572;2022-07-23T06:02:34;10.75;;;6.95;;
54831;SDS011;40730;53.068;6.572;2022-07-23T06:04:59;8.45;;;6.40;;
54831;SDS011;40730;53.068;6.572;2022-07-23T06:07:25;10.48;;;5.88;;
54831;SDS011;40730;53.068;6.572;2022-07-23T06:09:50;9.48;;;5.25;;
54831;SDS011;40730;53.068;6.572;2022-07-23T06:12:16;7.50;;;4.70;;
54831;SDS011;40730;53.068;6.572;2022-07-23T06:14:42;6.70;;;4.25;;
54831;SDS011;40730;53.068;6.572;2022-07-23T06:17:08;7.38;;;3.78;;
54831;SDS011;40730;53.068;6.572;2022-07-23T06:19:33;6.03;;;3.13;;
54831;SDS011;40730;53.068;6.572;2022-07-23T06:21:59;8.30;;;3.58;;
54831;SDS011;40730;53.068;6.572;2022-07-23T06:24:25;5.07;;;2.33;;
54831;SDS011;40730;53.068;6.572;2022-07-23T06:26:50;3.55;;;2.03;;
54831;SDS011;40730;53.068;6.572;2022-07-23T06:29:16;7.13;;;1.20;;
54831;SDS011;40730;53.068;6.572;2022-07-23T06:31:41;4.05;;;0.98;;
54831;SDS011;40730;53.068;6.572;2022-07-23T06:34:07;4.70;;;1.45;;
54831;SDS011;40730;53.068;6.572;2022-07-23T06:36:33;5.38;;;1.10;;
54831;SDS011;40730;53.068;6.572;2022-07-23T06:38:58;2.75;;;1.05;;
54831;SDS011;40730;53.068;6.572;2022-07-23T06:41:24;4.28;;;0.60;;
54831;SDS011;40730;53.068;6.572;2022-07-23T06:43:49;3.42;;;0.70;;
54831;SDS011;40730;53.068;6.572;2022-07-23T06:46:15;2.08;;;0.77;;
54831;SDS011;40730;53.068;6.572;2022-07-23T06:48:41;1.88;;;0.43;;
54831;SDS011;40730;53.068;6.572;2022-07-23T06:51:07;1.95;;;0.70;;
54831;SDS011;40730;53.068;6.572;2022-07-23T06:53:32;2.55;;;0.80;;
54831;SDS011;40730;53.068;6.572;2022-07-23T06:55:58;3.03;;;0.65;;
54831;SDS011;40730;53.068;6.572;2022-07-23T06:58:24;4.57;;;0.70;;
54831;SDS011;40730;53.068;6.572;2022-07-23T07:00:49;1.67;;;0.77;;
54831;SDS011;40730;53.068;6.572;2022-07-23T07:03:16;3.75;;;0.90;;
54831;SDS011;40730;53.068;6.572;2022-07-23T07:05:42;2.45;;;0.93;;
54831;SDS011;40730;53.068;6.572;2022-07-23T07:08:07;2.60;;;0.65;;
54831;SDS011;40730;53.068;6.572;2022-07-23T07:10:33;1.90;;;0.77;;
54831;SDS011;40730;53.068;6.572;2022-07-23T07:12:59;2.72;;;0.73;;
54831;SDS011;40730;53.068;6.572;2022-07-23T07:15:24;2.03;;;0.60;;
54831;SDS011;40730;53.068;6.572;2022-07-23T07:17:50;1.10;;;0.45;;
54831;SDS011;40730;53.068;6.572;2022-07-23T07:20:15;2.45;;;0.20;;
54831;SDS011;40730;53.068;6.572;2022-07-23T07:22:41;1.85;;;0.10;;
54831;SDS011;40730;53.068;6.572;2022-07-23T07:25:07;2.10;;;0.10;;
54831;SDS011;40730;53.068;6.572;2022-07-23T07:27:33;2.05;;;0.10;;
54831;SDS011;40730;53.068;6.572;2022-07-23T07:29:59;2.63;;;0.10;;
54831;SDS011;40730;53.068;6.572;2022-07-23T07:32:24;1.85;;;0.50;;
54831;SDS011;40730;53.068;6.572;2022-07-23T07:34:50;1.92;;;0.10;;
54831;SDS011;40730;53.068;6.572;2022-07-23T07:37:16;1.65;;;0.10;;
54831;SDS011;40730;53.068;6.572;2022-07-23T07:39:41;2.20;;;0.10;;
54831;SDS011;40730;53.068;6.572;2022-07-23T07:42:07;3.38;;;0.32;;
54831;SDS011;40730;53.068;6.572;2022-07-23T07:44:33;3.30;;;0.10;;
54831;SDS011;40730;53.068;6.572;2022-07-23T07:46:59;1.63;;;0.10;;
54831;SDS011;40730;53.068;6.572;2022-07-23T07:49:24;1.17;;;0.00;;
54831;SDS011;40730;53.068;6.572;2022-07-23T07:51:50;0.70;;;0.00;;
54831;SDS011;40730;53.068;6.572;2022-07-23T07:54:15;0.70;;;0.10;;
54831;SDS011;40730;53.068;6.572;2022-07-23T07:56:41;0.13;;;0.00;;
54831;SDS011;40730;53.068;6.572;2022-07-23T07:59:07;0.32;;;0.00;;
54831;SDS011;40730;53.068;6.572;2022-07-23T08:01:32;2.20;;;0.10;;
54831;SDS011;40730;53.068;6.572;2022-07-23T08:03:58;0.15;;;0.00;;
54831;SDS011;40730;53.068;6.572;2022-07-23T08:06:23;0.17;;;0.00;;
54831;SDS011;40730;53.068;6.572;2022-07-23T08:08:49;0.45;;;0.00;;
54831;SDS011;40730;53.068;6.572;2022-07-23T08:11:15;0.98;;;0.10;;
54831;SDS011;40730;53.068;6.572;2022-07-23T08:13:41;0.82;;;0.10;;
54831;SDS011;40730;53.068;6.572;2022-07-23T08:16:09;6.40;;;0.10;;
54831;SDS011;40730;53.068;6.572;2022-07-23T08:18:35;0.80;;;0.00;;
54831;SDS011;40730;53.068;6.572;2022-07-23T08:21:00;0.38;;;0.10;;
54831;SDS011;40730;53.068;6.572;2022-07-23T08:23:26;0.40;;;0.00;;
54831;SDS011;40730;53.068;6.572;2022-07-23T08:25:52;1.73;;;0.08;;
54831;SDS011;40730;53.068;6.572;2022-07-23T08:28:18;0.57;;;0.00;;
54831;SDS011;40730;53.068;6.572;2022-07-23T08:30:44;0.50;;;0.00;;
54831;SDS011;40730;53.068;6.572;2022-07-23T08:33:11;0.77;;;0.10;;
54831;SDS011;40730;53.068;6.572;2022-07-23T08:35:41;0.75;;;0.00;;
54831;SDS011;40730;53.068;6.572;2022-07-23T08:38:11;0.20;;;0.10;;
54831;SDS011;40730;53.068;6.572;2022-07-23T08:40:38;1.08;;;0.00;;
54831;SDS011;40730;53.068;6.572;2022-07-23T08:43:13;0.82;;;0.00;;
54831;SDS011;40730;53.068;6.572;2022-07-23T08:45:41;0.35;;;0.03;;
54831;SDS011;40730;53.068;6.572;2022-07-23T08:48:11;3.40;;;0.00;;
54831;SDS011;40730;53.068;6.572;2022-07-23T08:50:38;0.60;;;0.03;;
54831;SDS011;40730;53.068;6.572;2022-07-23T08:53:08;1.35;;;0.10;;
54831;SDS011;40730;53.068;6.572;2022-07-23T08:55:34;0.75;;;0.00;;
54831;SDS011;40730;53.068;6.572;2022-07-23T08:58:00;0.65;;;0.00;;
54831;SDS011;40730;53.068;6.572;2022-07-23T09:00:26;0.45;;;0.00;;
54831;SDS011;40730;53.068;6.572;2022-07-23T09:02:52;0.55;;;0.00;;
54831;SDS011;40730;53.068;6.572;2022-07-23T09:05:17;2.17;;;0.10;;
54831;SDS011;40730;53.068;6.572;2022-07-23T09:13:26;0.95;;;0.00;;
54831;SDS011;40730;53.068;6.572;2022-07-23T09:16:01;0.30;;;0.00;;
54831;SDS011;40730;53.068;6.572;2022-07-23T09:23:55;0.77;;;0.00;;
54831;SDS011;40730;53.068;6.572;2022-07-23T09:26:22;1.35;;;0.10;;
54831;SDS011;40730;53.068;6.572;2022-07-23T09:28:50;1.83;;;0.10;;
54831;SDS011;40730;53.068;6.572;2022-07-23T09:31:21;0.65;;;0.10;;
54831;SDS011;40730;53.068;6.572;2022-07-23T09:33:46;1.05;;;0.10;;
54831;SDS011;40730;53.068;6.572;2022-07-23T09:36:12;0.60;;;0.10;;
54831;SDS011;40730;53.068;6.572;2022-07-23T09:38:48;1.48;;;0.10;;
54831;SDS011;40730;53.068;6.572;2022-07-23T09:41:15;1.77;;;0.10;;
54831;SDS011;40730;53.068;6.572;2022-07-23T09:43:41;2.13;;;0.10;;
54831;SDS011;40730;53.068;6.572;2022-07-23T09:46:26;0.93;;;0.10;;
54831;SDS011;40730;53.068;6.572;2022-07-23T09:48:55;1.15;;;0.10;;
54831;SDS011;40730;53.068;6.572;2022-07-23T09:51:21;1.45;;;0.20;;
54831;SDS011;40730;53.068;6.572;2022-07-23T09:54:08;0.73;;;0.10;;
54831;SDS011;40730;53.068;6.572;2022-07-23T09:56:58;1.88;;;0.17;;
54831;SDS011;40730;53.068;6.572;2022-07-23T09:59:26;3.08;;;0.20;;
54831;SDS011;40730;53.068;6.572;2022-07-23T10:01:55;2.40;;;0.10;;
54831;SDS011;40730;53.068;6.572;2022-07-23T10:04:22;1.45;;;0.20;;
54831;SDS011;40730;53.068;6.572;2022-07-23T10:06:53;1.50;;;0.20;;
54831;SDS011;40730;53.068;6.572;2022-07-23T10:09:24;1.60;;;0.20;;
54831;SDS011;40730;53.068;6.572;2022-07-23T10:11:56;1.38;;;0.10;;
54831;SDS011;40730;53.068;6.572;2022-07-23T10:14:49;1.27;;;0.10;;
54831;SDS011;40730;53.068;6.572;2022-07-23T10:17:16;1.40;;;0.10;;
54831;SDS011;40730;53.068;6.572;2022-07-23T10:19:41;1.08;;;0.10;;
54831;SDS011;40730;53.068;6.572;2022-07-23T10:22:08;1.55;;;0.20;;
54831;SDS011;40730;53.068;6.572;2022-07-23T10:36:20;1.88;;;0.13;;
54831;SDS011;40730;53.068;6.572;2022-07-23T10:38:54;0.75;;;0.17;;
54831;SDS011;40730;53.068;6.572;2022-07-23T10:41:39;1.45;;;0.10;;
54831;SDS011;40730;53.068;6.572;2022-07-23T10:44:09;1.10;;;0.10;;
54831;SDS011;40730;53.068;6.572;2022-07-23T10:49:35;2.58;;;0.17;;
54831;SDS011;40730;53.068;6.572;2022-07-23T10:57:16;0.93;;;0.30;;
54831;SDS011;40730;53.068;6.572;2022-07-23T11:02:33;1.05;;;0.10;;
54831;SDS011;40730;53.068;6.572;2022-07-23T11:05:00;2.42;;;0.10;;
54831;SDS011;40730;53.068;6.572;2022-07-23T11:07:29;0.32;;;0.20;;
54831;SDS011;40730;53.068;6.572;2022-07-23T11:09:55;1.77;;;0.20;;
54831;SDS011;40730;53.068;6.572;2022-07-23T11:14:59;2.05;;;0.10;;
54831;SDS011;40730;53.068;6.572;2022-07-23T11:20:16;1.52;;;0.10;;
54831;SDS011;40730;53.068;6.572;2022-07-23T11:25:12;4.75;;;0.15;;
54831;SDS011;40730;53.068;6.572;2022-07-23T11:27:48;1.67;;;0.20;;
54831;SDS011;40730;53.068;6.572;2022-07-23T11:35:33;2.60;;;0.50;;
54831;SDS011;40730;53.068;6.572;2022-07-23T11:38:05;1.05;;;0.20;;
54831;SDS011;40730;53.068;6.572;2022-07-23T11:40:32;1.50;;;0.30;;
54831;SDS011;40730;53.068;6.572;2022-07-23T11:42:59;1.25;;;0.20;;
54831;SDS011;40730;53.068;6.572;2022-07-23T11:45:34;0.82;;;0.17;;
54831;SDS011;40730;53.068;6.572;2022-07-23T11:48:22;2.55;;;0.30;;
54831;SDS011;40730;53.068;6.572;2022-07-23T11:50:53;1.70;;;0.20;;
54831;SDS011;40730;53.068;6.572;2022-07-23T11:53:27;1.30;;;0.20;;
54831;SDS011;40730;53.068;6.572;2022-07-23T11:56:04;2.28;;;0.30;;
54831;SDS011;40730;53.068;6.572;2022-07-23T11:58:34;3.28;;;0.40;;
54831;SDS011;40730;53.068;6.572;2022-07-23T12:01:00;1.40;;;0.30;;
54831;SDS011;40730;53.068;6.572;2022-07-23T12:03:26;0.95;;;0.20;;
54831;SDS011;40730;53.068;6.572;2022-07-23T12:05:55;1.52;;;0.20;;
54831;SDS011;40730;53.068;6.572;2022-07-23T12:08:22;4.03;;;0.25;;
54831;SDS011;40730;53.068;6.572;2022-07-23T12:10:48;3.47;;;0.75;;
54831;SDS011;40730;53.068;6.572;2022-07-23T12:13:15;2.03;;;0.20;;
54831;SDS011;40730;53.068;6.572;2022-07-23T12:15:46;2.25;;;0.20;;
54831;SDS011;40730;53.068;6.572;2022-07-23T12:18:18;1.80;;;0.30;;
54831;SDS011;40730;53.068;6.572;2022-07-23T12:20:46;1.80;;;0.20;;
54831;SDS011;40730;53.068;6.572;2022-07-23T12:23:14;1.50;;;0.30;;
54831;SDS011;40730;53.068;6.572;2022-07-23T12:25:43;0.98;;;0.20;;
54831;SDS011;40730;53.068;6.572;2022-07-23T12:28:20;1.38;;;0.47;;
54831;SDS011;40730;53.068;6.572;2022-07-23T12:30:52;2.67;;;0.30;;
54831;SDS011;40730;53.068;6.572;2022-07-23T12:33:24;2.20;;;0.30;;
54831;SDS011;40730;53.068;6.572;2022-07-23T12:35:57;2.53;;;0.28;;
54831;SDS011;40730;53.068;6.572;2022-07-23T12:38:25;1.52;;;0.20;;
54831;SDS011;40730;53.068;6.572;2022-07-23T12:43:27;1.33;;;0.45;;
54831;SDS011;40730;53.068;6.572;2022-07-23T12:51:03;1.05;;;0.30;;
54831;SDS011;40730;53.068;6.572;2022-07-23T12:53:36;3.28;;;0.30;;
54831;SDS011;40730;53.068;6.572;2022-07-23T12:58:39;0.93;;;0.30;;
54831;SDS011;40730;53.068;6.572;2022-07-23T13:01:05;1.95;;;0.40;;
54831;SDS011;40730;53.068;6.572;2022-07-23T13:03:40;3.58;;;0.40;;
54831;SDS011;40730;53.068;6.572;2022-07-23T13:06:10;2.10;;;0.30;;
54831;SDS011;40730;53.068;6.572;2022-07-23T13:08:37;2.03;;;0.30;;
54831;SDS011;40730;53.068;6.572;2022-07-23T13:11:05;1.77;;;0.50;;
54831;SDS011;40730;53.068;6.572;2022-07-23T13:13:33;3.97;;;0.40;;
54831;SDS011;40730;53.068;6.572;2022-07-23T13:16:00;1.48;;;0.20;;
54831;SDS011;40730;53.068;6.572;2022-07-23T13:18:26;2.05;;;0.20;;
54831;SDS011;40730;53.068;6.572;2022-07-23T13:20:52;1.05;;;0.20;;
54831;SDS011;40730;53.068;6.572;2022-07-23T13:23:18;1.88;;;0.40;;
54831;SDS011;40730;53.068;6.572;2022-07-23T13:25:44;1.00;;;0.20;;
54831;SDS011;40730;53.068;6.572;2022-07-23T13:28:11;1.27;;;0.30;;
54831;SDS011;40730;53.068;6.572;2022-07-23T13:30:38;2.75;;;0.30;;
54831;SDS011;40730;53.068;6.572;2022-07-23T13:33:04;1.77;;;0.40;;
54831;SDS011;40730;53.068;6.572;2022-07-23T13:35:30;5.00;;;0.30;;
54831;SDS011;40730;53.068;6.572;2022-07-23T13:37:56;1.38;;;0.20;;
54831;SDS011;40730;53.068;6.572;2022-07-23T13:40:22;2.38;;;0.40;;
54831;SDS011;40730;53.068;6.572;2022-07-23T13:42:48;1.30;;;0.25;;
54831;SDS011;40730;53.068;6.572;2022-07-23T13:45:13;1.80;;;0.20;;
54831;SDS011;40730;53.068;6.572;2022-07-23T13:47:39;2.60;;;0.30;;
54831;SDS011;40730;53.068;6.572;2022-07-23T13:50:05;1.73;;;0.32;;
54831;SDS011;40730;53.068;6.572;2022-07-23T13:52:31;0.95;;;0.20;;
54831;SDS011;40730;53.068;6.572;2022-07-23T13:54:58;2.40;;;0.20;;
54831;SDS011;40730;53.068;6.572;2022-07-23T13:57:25;1.30;;;0.20;;
54831;SDS011;40730;53.068;6.572;2022-07-23T13:59:51;1.30;;;0.30;;
54831;SDS011;40730;53.068;6.572;2022-07-23T14:02:16;1.73;;;0.32;;
54831;SDS011;40730;53.068;6.572;2022-07-23T14:04:43;1.88;;;0.20;;
54831;SDS011;40730;53.068;6.572;2022-07-23T14:07:09;1.15;;;0.40;;
54831;SDS011;40730;53.068;6.572;2022-07-23T14:09:35;3.97;;;0.20;;
54831;SDS011;40730;53.068;6.572;2022-07-23T14:12:00;3.08;;;0.65;;
54831;SDS011;40730;53.068;6.572;2022-07-23T14:14:26;2.03;;;0.20;;
54831;SDS011;40730;53.068;6.572;2022-07-23T14:16:52;1.20;;;0.20;;
54831;SDS011;40730;53.068;6.572;2022-07-23T14:19:18;1.73;;;0.30;;
54831;SDS011;40730;53.068;6.572;2022-07-23T14:21:43;1.05;;;0.40;;
54831;SDS011;40730;53.068;6.572;2022-07-23T14:24:09;0.98;;;0.20;;
54831;SDS011;40730;53.068;6.572;2022-07-23T14:26:34;1.77;;;0.30;;
54831;SDS011;40730;53.068;6.572;2022-07-23T14:29:00;2.80;;;0.30;;
54831;SDS011;40730;53.068;6.572;2022-07-23T14:31:26;0.52;;;0.22;;
54831;SDS011;40730;53.068;6.572;2022-07-23T14:33:52;3.75;;;0.30;;
54831;SDS011;40730;53.068;6.572;2022-07-23T14:36:17;0.73;;;0.20;;
54831;SDS011;40730;53.068;6.572;2022-07-23T14:38:43;0.77;;;0.20;;
54831;SDS011;40730;53.068;6.572;2022-07-23T14:41:08;1.10;;;0.20;;
54831;SDS011;40730;53.068;6.572;2022-07-23T14:43:35;3.10;;;0.38;;
54831;SDS011;40730;53.068;6.572;2022-07-23T14:46:01;2.50;;;0.30;;
54831;SDS011;40730;53.068;6.572;2022-07-23T14:48:27;0.63;;;0.20;;
54831;SDS011;40730;53.068;6.572;2022-07-23T14:50:52;2.30;;;0.20;;
54831;SDS011;40730;53.068;6.572;2022-07-23T14:53:18;1.58;;;0.20;;
54831;SDS011;40730;53.068;6.572;2022-07-23T14:55:43;0.63;;;0.20;;
54831;SDS011;40730;53.068;6.572;2022-07-23T14:58:09;0.77;;;0.30;;
54831;SDS011;40730;53.068;6.572;2022-07-23T15:00:35;1.80;;;0.40;;
54831;SDS011;40730;53.068;6.572;2022-07-23T15:03:00;1.95;;;0.28;;
54831;SDS011;40730;53.068;6.572;2022-07-23T15:05:26;0.63;;;0.20;;
54831;SDS011;40730;53.068;6.572;2022-07-23T15:07:53;1.08;;;0.20;;
54831;SDS011;40730;53.068;6.572;2022-07-23T15:10:18;1.35;;;0.30;;
54831;SDS011;40730;53.068;6.572;2022-07-23T15:12:44;2.10;;;0.20;;
54831;SDS011;40730;53.068;6.572;2022-07-23T15:15:09;1.85;;;0.20;;
54831;SDS011;40730;53.068;6.572;2022-07-23T15:17:35;1.13;;;0.30;;
54831;SDS011;40730;53.068;6.572;2022-07-23T15:20:00;0.70;;;0.20;;
54831;SDS011;40730;53.068;6.572;2022-07-23T15:22:26;1.23;;;0.20;;
54831;SDS011;40730;53.068;6.572;2022-07-23T15:24:53;1.98;;;0.20;;
54831;SDS011;40730;53.068;6.572;2022-07-23T15:27:18;0.57;;;0.20;;
54831;SDS011;40730;53.068;6.572;2022-07-23T15:29:44;2.13;;;0.22;;
54831;SDS011;40730;53.068;6.572;2022-07-23T15:32:10;1.13;;;0.32;;
54831;SDS011;40730;53.068;6.572;2022-07-23T15:34:37;1.85;;;0.30;;
54831;SDS011;40730;53.068;6.572;2022-07-23T15:37:03;2.95;;;0.30;;
54831;SDS011;40730;53.068;6.572;2022-07-23T15:39:30;1.10;;;0.30;;
54831;SDS011;40730;53.068;6.572;2022-07-23T15:41:57;1.80;;;0.30;;